sensor_id;sensor_type;location;lat;lon;timestamp;P1;durP1;ratioP1;P2;durP2;ratioP2
54977;SDS011;40873;47.522;19.106;2024-03-08T00:00:11;21.55;;;11.85;;
54977;SDS011;40873;47.522;19.106;2024-03-08T00:03:02;19.42;;;11.27;;
54977;SDS011;40873;47.522;19.106;2024-03-08T00:05:29;22.42;;;12.13;;
54977;SDS011;40873;47.522;19.106;2024-03-08T00:07:57;22.58;;;12.25;;
54977;SDS011;40873;47.522;19.106;2024-03-08T00:10:24;25.27;;;12.88;;
54977;SDS011;40873;47.522;19.106;2024-03-08T00:12:54;23.58;;;11.77;;
54977;SDS011;40873;47.522;19.106;2024-03-08T00:15:21;22.27;;;12.40;;
54977;SDS011;40873;47.522;19.106;2024-03-08T00:17:50;26.58;;;12.77;;
54977;SDS011;40873;47.522;19.106;2024-03-08T00:20:17;25.77;;;13.98;;
54977;SDS011;40873;47.522;19.106;2024-03-08T00:22:47;26.67;;;12.80;;
54977;SDS011;40873;47.522;19.106;2024-03-08T00:25:14;25.98;;;13.70;;
54977;SDS011;40873;47.522;19.106;2024-03-08T00:27:42;25.98;;;13.00;;
54977;SDS011;40873;47.522;19.106;2024-03-08T00:30:09;21.70;;;11.98;;
54977;SDS011;40873;47.522;19.106;2024-03-08T00:32:37;25.70;;;13.60;;
54977;SDS011;40873;47.522;19.106;2024-03-08T00:35:05;25.95;;;13.40;;
54977;SDS011;40873;47.522;19.106;2024-03-08T00:37:35;24.92;;;12.98;;
54977;SDS011;40873;47.522;19.106;2024-03-08T00:40:03;25.23;;;13.43;;
54977;SDS011;40873;47.522;19.106;2024-03-08T00:42:31;27.15;;;13.25;;
54977;SDS011;40873;47.522;19.106;2024-03-08T00:45:00;25.33;;;13.15;;
54977;SDS011;40873;47.522;19.106;2024-03-08T00:47:27;24.60;;;12.00;;
54977;SDS011;40873;47.522;19.106;2024-03-08T00:49:54;21.85;;;13.15;;
54977;SDS011;40873;47.522;19.106;2024-03-08T00:52:23;23.83;;;12.32;;
54977;SDS011;40873;47.522;19.106;2024-03-08T00:54:50;24.23;;;13.00;;
54977;SDS011;40873;47.522;19.106;2024-03-08T00:57:18;21.55;;;13.50;;
54977;SDS011;40873;47.522;19.106;2024-03-08T00:59:45;26.83;;;13.80;;
54977;SDS011;40873;47.522;19.106;2024-03-08T01:02:12;25.42;;;12.63;;
54977;SDS011;40873;47.522;19.106;2024-03-08T01:04:39;23.70;;;13.45;;
54977;SDS011;40873;47.522;19.106;2024-03-08T01:07:06;26.60;;;13.50;;
54977;SDS011;40873;47.522;19.106;2024-03-08T01:09:33;24.73;;;12.40;;
54977;SDS011;40873;47.522;19.106;2024-03-08T01:12:00;24.40;;;13.00;;
54977;SDS011;40873;47.522;19.106;2024-03-08T01:14:28;22.85;;;12.48;;
54977;SDS011;40873;47.522;19.106;2024-03-08T01:16:57;22.95;;;12.63;;
54977;SDS011;40873;47.522;19.106;2024-03-08T01:19:25;22.30;;;13.70;;
54977;SDS011;40873;47.522;19.106;2024-03-08T01:21:52;28.20;;;14.85;;
54977;SDS011;40873;47.522;19.106;2024-03-08T01:24:19;24.05;;;13.40;;
54977;SDS011;40873;47.522;19.106;2024-03-08T01:26:46;22.92;;;13.20;;
54977;SDS011;40873;47.522;19.106;2024-03-08T01:29:14;26.00;;;13.35;;
54977;SDS011;40873;47.522;19.106;2024-03-08T01:31:41;27.20;;;14.48;;
54977;SDS011;40873;47.522;19.106;2024-03-08T01:34:08;22.35;;;13.07;;
54977;SDS011;40873;47.522;19.106;2024-03-08T01:36:35;27.63;;;14.35;;
54977;SDS011;40873;47.522;19.106;2024-03-08T01:39:03;25.25;;;13.23;;
54977;SDS011;40873;47.522;19.106;2024-03-08T01:41:35;25.23;;;13.82;;
54977;SDS011;40873;47.522;19.106;2024-03-08T01:44:02;25.23;;;14.05;;
54977;SDS011;40873;47.522;19.106;2024-03-08T01:46:30;27.23;;;14.07;;
54977;SDS011;40873;47.522;19.106;2024-03-08T01:48:58;25.95;;;13.60;;
54977;SDS011;40873;47.522;19.106;2024-03-08T01:51:28;29.60;;;16.48;;
54977;SDS011;40873;47.522;19.106;2024-03-08T01:53:56;30.85;;;14.13;;
54977;SDS011;40873;47.522;19.106;2024-03-08T01:56:24;26.88;;;13.88;;
54977;SDS011;40873;47.522;19.106;2024-03-08T01:58:52;31.15;;;14.73;;
54977;SDS011;40873;47.522;19.106;2024-03-08T02:01:19;29.33;;;15.95;;
54977;SDS011;40873;47.522;19.106;2024-03-08T02:03:46;31.77;;;15.55;;
54977;SDS011;40873;47.522;19.106;2024-03-08T02:06:14;30.58;;;15.43;;
54977;SDS011;40873;47.522;19.106;2024-03-08T02:08:42;33.30;;;16.42;;
54977;SDS011;40873;47.522;19.106;2024-03-08T02:11:14;30.83;;;15.90;;
54977;SDS011;40873;47.522;19.106;2024-03-08T02:13:42;31.20;;;15.65;;
54977;SDS011;40873;47.522;19.106;2024-03-08T02:16:09;36.55;;;16.65;;
54977;SDS011;40873;47.522;19.106;2024-03-08T02:18:36;36.30;;;18.05;;
54977;SDS011;40873;47.522;19.106;2024-03-08T02:21:07;28.75;;;15.35;;
54977;SDS011;40873;47.522;19.106;2024-03-08T02:23:35;36.22;;;17.08;;
54977;SDS011;40873;47.522;19.106;2024-03-08T02:26:04;34.30;;;16.23;;
54977;SDS011;40873;47.522;19.106;2024-03-08T02:28:31;32.88;;;16.73;;
54977;SDS011;40873;47.522;19.106;2024-03-08T02:30:59;34.72;;;18.17;;
54977;SDS011;40873;47.522;19.106;2024-03-08T02:33:26;39.67;;;17.80;;
54977;SDS011;40873;47.522;19.106;2024-03-08T02:35:54;38.83;;;17.60;;
54977;SDS011;40873;47.522;19.106;2024-03-08T02:38:25;40.83;;;18.55;;
54977;SDS011;40873;47.522;19.106;2024-03-08T02:40:53;32.03;;;16.75;;
54977;SDS011;40873;47.522;19.106;2024-03-08T02:43:21;39.38;;;17.38;;
54977;SDS011;40873;47.522;19.106;2024-03-08T02:45:49;40.53;;;19.65;;
54977;SDS011;40873;47.522;19.106;2024-03-08T02:48:19;43.83;;;20.90;;
54977;SDS011;40873;47.522;19.106;2024-03-08T02:50:47;43.15;;;19.83;;
54977;SDS011;40873;47.522;19.106;2024-03-08T02:53:14;43.00;;;20.40;;
54977;SDS011;40873;47.522;19.106;2024-03-08T02:55:42;43.05;;;19.95;;
54977;SDS011;40873;47.522;19.106;2024-03-08T02:58:09;48.75;;;21.40;;
54977;SDS011;40873;47.522;19.106;2024-03-08T03:00:38;40.53;;;19.80;;
54977;SDS011;40873;47.522;19.106;2024-03-08T03:03:06;41.83;;;19.65;;
54977;SDS011;40873;47.522;19.106;2024-03-08T03:05:34;45.40;;;22.13;;
54977;SDS011;40873;47.522;19.106;2024-03-08T03:08:02;48.92;;;22.58;;
54977;SDS011;40873;47.522;19.106;2024-03-08T03:10:36;43.40;;;20.15;;
54977;SDS011;40873;47.522;19.106;2024-03-08T03:13:03;42.45;;;20.50;;
54977;SDS011;40873;47.522;19.106;2024-03-08T03:15:35;42.13;;;20.70;;
54977;SDS011;40873;47.522;19.106;2024-03-08T03:18:03;47.42;;;21.42;;
54977;SDS011;40873;47.522;19.106;2024-03-08T03:20:32;43.97;;;21.75;;
54977;SDS011;40873;47.522;19.106;2024-03-08T03:23:00;48.50;;;21.13;;
54977;SDS011;40873;47.522;19.106;2024-03-08T03:25:29;50.13;;;22.55;;
54977;SDS011;40873;47.522;19.106;2024-03-08T03:28:01;40.70;;;19.98;;
54977;SDS011;40873;47.522;19.106;2024-03-08T03:30:28;49.88;;;22.63;;
54977;SDS011;40873;47.522;19.106;2024-03-08T03:32:59;47.35;;;21.73;;
54977;SDS011;40873;47.522;19.106;2024-03-08T03:35:28;44.38;;;21.02;;
54977;SDS011;40873;47.522;19.106;2024-03-08T03:37:58;41.40;;;19.42;;
54977;SDS011;40873;47.522;19.106;2024-03-08T03:40:43;42.38;;;20.85;;
54977;SDS011;40873;47.522;19.106;2024-03-08T03:43:12;48.80;;;22.42;;
54977;SDS011;40873;47.522;19.106;2024-03-08T03:45:39;44.97;;;20.92;;
54977;SDS011;40873;47.522;19.106;2024-03-08T03:48:09;44.25;;;20.15;;
54977;SDS011;40873;47.522;19.106;2024-03-08T03:50:38;49.55;;;21.20;;
54977;SDS011;40873;47.522;19.106;2024-03-08T03:53:06;48.38;;;21.15;;
54977;SDS011;40873;47.522;19.106;2024-03-08T03:55:36;44.60;;;20.85;;
54977;SDS011;40873;47.522;19.106;2024-03-08T03:58:07;50.92;;;23.50;;
54977;SDS011;40873;47.522;19.106;2024-03-08T04:00:34;44.15;;;20.67;;
54977;SDS011;40873;47.522;19.106;2024-03-08T04:03:04;50.83;;;21.70;;
54977;SDS011;40873;47.522;19.106;2024-03-08T04:05:33;52.30;;;22.75;;
54977;SDS011;40873;47.522;19.106;2024-03-08T04:08:00;58.13;;;27.33;;
54977;SDS011;40873;47.522;19.106;2024-03-08T04:10:27;50.17;;;21.33;;
54977;SDS011;40873;47.522;19.106;2024-03-08T04:12:54;45.80;;;22.42;;
54977;SDS011;40873;47.522;19.106;2024-03-08T04:15:21;47.80;;;21.13;;
54977;SDS011;40873;47.522;19.106;2024-03-08T04:17:48;48.17;;;21.48;;
54977;SDS011;40873;47.522;19.106;2024-03-08T04:20:15;49.50;;;21.27;;
54977;SDS011;40873;47.522;19.106;2024-03-08T04:22:44;48.75;;;20.27;;
54977;SDS011;40873;47.522;19.106;2024-03-08T04:25:13;44.72;;;20.60;;
54977;SDS011;40873;47.522;19.106;2024-03-08T04:27:41;38.75;;;19.83;;
54977;SDS011;40873;47.522;19.106;2024-03-08T04:30:08;44.97;;;20.48;;
54977;SDS011;40873;47.522;19.106;2024-03-08T04:32:36;48.97;;;22.20;;
54977;SDS011;40873;47.522;19.106;2024-03-08T04:35:04;43.75;;;21.73;;
54977;SDS011;40873;47.522;19.106;2024-03-08T04:37:32;50.30;;;22.27;;
54977;SDS011;40873;47.522;19.106;2024-03-08T04:39:59;50.22;;;22.40;;
54977;SDS011;40873;47.522;19.106;2024-03-08T04:42:27;45.78;;;22.00;;
54977;SDS011;40873;47.522;19.106;2024-03-08T04:44:56;45.50;;;21.60;;
54977;SDS011;40873;47.522;19.106;2024-03-08T04:47:24;46.90;;;21.52;;
54977;SDS011;40873;47.522;19.106;2024-03-08T04:49:52;48.35;;;19.98;;
54977;SDS011;40873;47.522;19.106;2024-03-08T04:52:19;50.40;;;21.73;;
54977;SDS011;40873;47.522;19.106;2024-03-08T04:54:47;47.67;;;21.65;;
54977;SDS011;40873;47.522;19.106;2024-03-08T04:57:15;49.35;;;21.65;;
54977;SDS011;40873;47.522;19.106;2024-03-08T04:59:45;49.00;;;21.27;;
54977;SDS011;40873;47.522;19.106;2024-03-08T05:02:12;44.03;;;19.98;;
54977;SDS011;40873;47.522;19.106;2024-03-08T05:04:39;46.63;;;20.83;;
54977;SDS011;40873;47.522;19.106;2024-03-08T05:07:06;51.00;;;21.58;;
54977;SDS011;40873;47.522;19.106;2024-03-08T05:09:34;44.78;;;21.63;;
54977;SDS011;40873;47.522;19.106;2024-03-08T05:12:02;48.10;;;20.52;;
54977;SDS011;40873;47.522;19.106;2024-03-08T05:14:30;43.65;;;20.85;;
54977;SDS011;40873;47.522;19.106;2024-03-08T05:16:57;50.40;;;22.13;;
54977;SDS011;40873;47.522;19.106;2024-03-08T05:19:24;44.42;;;22.65;;
54977;SDS011;40873;47.522;19.106;2024-03-08T05:21:51;42.42;;;20.75;;
54977;SDS011;40873;47.522;19.106;2024-03-08T05:24:19;47.55;;;21.90;;
54977;SDS011;40873;47.522;19.106;2024-03-08T05:26:46;46.58;;;21.67;;
54977;SDS011;40873;47.522;19.106;2024-03-08T05:29:15;46.03;;;20.92;;
54977;SDS011;40873;47.522;19.106;2024-03-08T05:31:49;42.03;;;21.95;;
54977;SDS011;40873;47.522;19.106;2024-03-08T05:34:19;49.28;;;22.60;;
54977;SDS011;40873;47.522;19.106;2024-03-08T05:36:48;49.80;;;23.27;;
54977;SDS011;40873;47.522;19.106;2024-03-08T05:39:18;46.97;;;21.60;;
54977;SDS011;40873;47.522;19.106;2024-03-08T05:41:46;49.30;;;22.23;;
54977;SDS011;40873;47.522;19.106;2024-03-08T05:44:14;44.70;;;19.85;;
54977;SDS011;40873;47.522;19.106;2024-03-08T05:46:44;50.03;;;21.27;;
54977;SDS011;40873;47.522;19.106;2024-03-08T05:49:14;49.28;;;22.35;;
54977;SDS011;40873;47.522;19.106;2024-03-08T05:51:41;52.00;;;24.48;;
54977;SDS011;40873;47.522;19.106;2024-03-08T05:54:10;50.65;;;22.30;;
54977;SDS011;40873;47.522;19.106;2024-03-08T05:56:41;47.05;;;21.10;;
54977;SDS011;40873;47.522;19.106;2024-03-08T05:59:12;49.92;;;22.83;;
54977;SDS011;40873;47.522;19.106;2024-03-08T06:01:40;47.42;;;21.38;;
54977;SDS011;40873;47.522;19.106;2024-03-08T06:04:09;46.38;;;21.45;;
54977;SDS011;40873;47.522;19.106;2024-03-08T06:06:38;41.58;;;21.40;;
54977;SDS011;40873;47.522;19.106;2024-03-08T06:09:07;49.75;;;22.05;;
54977;SDS011;40873;47.522;19.106;2024-03-08T06:11:37;49.33;;;22.50;;
54977;SDS011;40873;47.522;19.106;2024-03-08T06:14:05;46.50;;;21.38;;
54977;SDS011;40873;47.522;19.106;2024-03-08T06:16:33;47.55;;;21.63;;
54977;SDS011;40873;47.522;19.106;2024-03-08T06:19:00;51.08;;;21.45;;
54977;SDS011;40873;47.522;19.106;2024-03-08T06:21:29;51.72;;;22.33;;
54977;SDS011;40873;47.522;19.106;2024-03-08T06:23:56;49.63;;;22.70;;
54977;SDS011;40873;47.522;19.106;2024-03-08T06:26:26;47.45;;;22.23;;
54977;SDS011;40873;47.522;19.106;2024-03-08T06:28:59;49.67;;;22.63;;
54977;SDS011;40873;47.522;19.106;2024-03-08T06:31:26;58.03;;;25.20;;
54977;SDS011;40873;47.522;19.106;2024-03-08T06:33:53;46.35;;;21.05;;
54977;SDS011;40873;47.522;19.106;2024-03-08T06:36:24;53.15;;;22.70;;
54977;SDS011;40873;47.522;19.106;2024-03-08T06:38:53;45.33;;;22.27;;
54977;SDS011;40873;47.522;19.106;2024-03-08T06:41:21;52.58;;;21.52;;
54977;SDS011;40873;47.522;19.106;2024-03-08T06:43:48;47.72;;;21.90;;
54977;SDS011;40873;47.522;19.106;2024-03-08T06:46:18;49.08;;;23.00;;
54977;SDS011;40873;47.522;19.106;2024-03-08T06:48:47;53.83;;;22.80;;
54977;SDS011;40873;47.522;19.106;2024-03-08T06:51:16;48.50;;;23.08;;
54977;SDS011;40873;47.522;19.106;2024-03-08T06:53:44;49.75;;;22.35;;
54977;SDS011;40873;47.522;19.106;2024-03-08T06:56:11;48.92;;;22.92;;
54977;SDS011;40873;47.522;19.106;2024-03-08T06:58:39;47.17;;;20.77;;
54977;SDS011;40873;47.522;19.106;2024-03-08T07:01:06;46.15;;;20.08;;
54977;SDS011;40873;47.522;19.106;2024-03-08T07:03:35;46.50;;;20.60;;
54977;SDS011;40873;47.522;19.106;2024-03-08T07:06:02;46.72;;;18.90;;
54977;SDS011;40873;47.522;19.106;2024-03-08T07:08:30;46.65;;;21.77;;
54977;SDS011;40873;47.522;19.106;2024-03-08T07:10:57;47.80;;;21.10;;
54977;SDS011;40873;47.522;19.106;2024-03-08T07:13:25;43.63;;;20.73;;
54977;SDS011;40873;47.522;19.106;2024-03-08T07:15:56;43.80;;;20.38;;
54977;SDS011;40873;47.522;19.106;2024-03-08T07:18:22;48.33;;;22.00;;
54977;SDS011;40873;47.522;19.106;2024-03-08T07:20:50;47.83;;;22.40;;
54977;SDS011;40873;47.522;19.106;2024-03-08T07:23:17;48.97;;;22.00;;
54977;SDS011;40873;47.522;19.106;2024-03-08T07:26:03;43.88;;;21.25;;
54977;SDS011;40873;47.522;19.106;2024-03-08T07:28:31;48.75;;;20.08;;
54977;SDS011;40873;47.522;19.106;2024-03-08T07:30:58;42.28;;;20.73;;
54977;SDS011;40873;47.522;19.106;2024-03-08T07:33:48;46.30;;;21.48;;
54977;SDS011;40873;47.522;19.106;2024-03-08T07:36:17;45.75;;;21.55;;
54977;SDS011;40873;47.522;19.106;2024-03-08T07:38:44;44.67;;;21.05;;
54977;SDS011;40873;47.522;19.106;2024-03-08T07:41:17;39.95;;;19.20;;
54977;SDS011;40873;47.522;19.106;2024-03-08T07:43:44;48.38;;;21.00;;
54977;SDS011;40873;47.522;19.106;2024-03-08T07:46:11;47.15;;;21.73;;
54977;SDS011;40873;47.522;19.106;2024-03-08T07:48:40;47.72;;;20.67;;
54977;SDS011;40873;47.522;19.106;2024-03-08T07:51:07;45.65;;;20.85;;
54977;SDS011;40873;47.522;19.106;2024-03-08T07:53:37;50.85;;;23.88;;
54977;SDS011;40873;47.522;19.106;2024-03-08T07:56:05;46.47;;;22.30;;
54977;SDS011;40873;47.522;19.106;2024-03-08T07:58:32;49.20;;;21.73;;
54977;SDS011;40873;47.522;19.106;2024-03-08T08:01:01;46.65;;;21.30;;
54977;SDS011;40873;47.522;19.106;2024-03-08T08:03:28;49.00;;;21.73;;
54977;SDS011;40873;47.522;19.106;2024-03-08T08:05:58;50.45;;;22.30;;
54977;SDS011;40873;47.522;19.106;2024-03-08T08:08:25;51.05;;;22.63;;
54977;SDS011;40873;47.522;19.106;2024-03-08T08:10:53;49.67;;;21.85;;
54977;SDS011;40873;47.522;19.106;2024-03-08T08:13:20;50.50;;;22.48;;
54977;SDS011;40873;47.522;19.106;2024-03-08T08:15:47;55.85;;;22.67;;
54977;SDS011;40873;47.522;19.106;2024-03-08T08:18:14;56.58;;;23.95;;
54977;SDS011;40873;47.522;19.106;2024-03-08T08:20:41;55.10;;;24.08;;
54977;SDS011;40873;47.522;19.106;2024-03-08T08:23:09;49.22;;;20.95;;
54977;SDS011;40873;47.522;19.106;2024-03-08T08:25:38;52.00;;;21.02;;
54977;SDS011;40873;47.522;19.106;2024-03-08T08:28:05;54.35;;;22.88;;
54977;SDS011;40873;47.522;19.106;2024-03-08T08:30:32;63.25;;;24.02;;
54977;SDS011;40873;47.522;19.106;2024-03-08T08:33:00;48.88;;;21.55;;
54977;SDS011;40873;47.522;19.106;2024-03-08T08:35:27;52.38;;;23.33;;
54977;SDS011;40873;47.522;19.106;2024-03-08T08:37:55;54.88;;;23.73;;
54977;SDS011;40873;47.522;19.106;2024-03-08T08:40:22;52.40;;;23.83;;
54977;SDS011;40873;47.522;19.106;2024-03-08T08:42:52;48.78;;;22.13;;
54977;SDS011;40873;47.522;19.106;2024-03-08T08:45:19;58.85;;;25.67;;
54977;SDS011;40873;47.522;19.106;2024-03-08T08:47:51;51.00;;;24.02;;
54977;SDS011;40873;47.522;19.106;2024-03-08T08:50:19;54.90;;;22.92;;
54977;SDS011;40873;47.522;19.106;2024-03-08T08:52:50;50.22;;;23.55;;
54977;SDS011;40873;47.522;19.106;2024-03-08T08:55:20;53.15;;;24.13;;
54977;SDS011;40873;47.522;19.106;2024-03-08T08:57:52;51.53;;;22.77;;
54977;SDS011;40873;47.522;19.106;2024-03-08T09:00:19;53.83;;;23.27;;
54977;SDS011;40873;47.522;19.106;2024-03-08T09:02:48;55.75;;;23.17;;
54977;SDS011;40873;47.522;19.106;2024-03-08T09:05:15;54.65;;;22.50;;
54977;SDS011;40873;47.522;19.106;2024-03-08T09:07:43;53.72;;;23.80;;
54977;SDS011;40873;47.522;19.106;2024-03-08T09:10:12;52.85;;;22.00;;
54977;SDS011;40873;47.522;19.106;2024-03-08T09:12:43;55.85;;;23.30;;
54977;SDS011;40873;47.522;19.106;2024-03-08T09:15:14;49.10;;;22.83;;
54977;SDS011;40873;47.522;19.106;2024-03-08T09:17:44;52.40;;;21.52;;
54977;SDS011;40873;47.522;19.106;2024-03-08T09:20:11;54.75;;;24.58;;
54977;SDS011;40873;47.522;19.106;2024-03-08T09:22:45;48.88;;;22.77;;
54977;SDS011;40873;47.522;19.106;2024-03-08T09:25:13;54.45;;;22.20;;
54977;SDS011;40873;47.522;19.106;2024-03-08T09:27:40;54.92;;;23.60;;
54977;SDS011;40873;47.522;19.106;2024-03-08T09:30:08;54.53;;;23.55;;
54977;SDS011;40873;47.522;19.106;2024-03-08T09:32:35;55.22;;;22.63;;
54977;SDS011;40873;47.522;19.106;2024-03-08T09:35:04;53.90;;;22.67;;
54977;SDS011;40873;47.522;19.106;2024-03-08T09:37:34;52.20;;;21.75;;
54977;SDS011;40873;47.522;19.106;2024-03-08T09:40:02;54.60;;;23.67;;
54977;SDS011;40873;47.522;19.106;2024-03-08T09:42:31;57.00;;;24.55;;
54977;SDS011;40873;47.522;19.106;2024-03-08T09:44:58;46.58;;;22.55;;
54977;SDS011;40873;47.522;19.106;2024-03-08T09:47:25;53.72;;;22.50;;
54977;SDS011;40873;47.522;19.106;2024-03-08T09:50:00;52.60;;;23.23;;
54977;SDS011;40873;47.522;19.106;2024-03-08T09:52:28;51.83;;;21.98;;
54977;SDS011;40873;47.522;19.106;2024-03-08T09:54:57;50.78;;;22.27;;
54977;SDS011;40873;47.522;19.106;2024-03-08T09:57:25;51.75;;;22.25;;
54977;SDS011;40873;47.522;19.106;2024-03-08T09:59:52;52.90;;;23.65;;
54977;SDS011;40873;47.522;19.106;2024-03-08T10:02:19;55.20;;;24.02;;
54977;SDS011;40873;47.522;19.106;2024-03-08T10:04:48;53.03;;;24.02;;
54977;SDS011;40873;47.522;19.106;2024-03-08T10:07:15;50.35;;;20.42;;
54977;SDS011;40873;47.522;19.106;2024-03-08T10:09:43;52.88;;;23.17;;
54977;SDS011;40873;47.522;19.106;2024-03-08T10:12:16;49.90;;;24.15;;
54977;SDS011;40873;47.522;19.106;2024-03-08T10:14:44;52.40;;;22.05;;
54977;SDS011;40873;47.522;19.106;2024-03-08T10:17:11;48.92;;;22.25;;
54977;SDS011;40873;47.522;19.106;2024-03-08T10:19:38;49.00;;;21.83;;
54977;SDS011;40873;47.522;19.106;2024-03-08T10:22:05;54.35;;;22.48;;
54977;SDS011;40873;47.522;19.106;2024-03-08T10:24:33;53.83;;;21.70;;
54977;SDS011;40873;47.522;19.106;2024-03-08T10:27:04;50.08;;;21.88;;
54977;SDS011;40873;47.522;19.106;2024-03-08T10:29:31;47.70;;;22.10;;
54977;SDS011;40873;47.522;19.106;2024-03-08T10:31:59;48.78;;;21.73;;
54977;SDS011;40873;47.522;19.106;2024-03-08T10:34:26;49.75;;;20.17;;
54977;SDS011;40873;47.522;19.106;2024-03-08T10:36:53;47.15;;;20.67;;
54977;SDS011;40873;47.522;19.106;2024-03-08T10:39:26;48.30;;;22.80;;
54977;SDS011;40873;47.522;19.106;2024-03-08T10:42:02;46.97;;;21.75;;
54977;SDS011;40873;47.522;19.106;2024-03-08T10:47:01;47.30;;;21.35;;
54977;SDS011;40873;47.522;19.106;2024-03-08T10:49:37;44.53;;;19.23;;
54977;SDS011;40873;47.522;19.106;2024-03-08T10:52:06;47.42;;;20.02;;
54977;SDS011;40873;47.522;19.106;2024-03-08T10:54:36;42.85;;;19.20;;
54977;SDS011;40873;47.522;19.106;2024-03-08T10:57:12;38.13;;;17.70;;
54977;SDS011;40873;47.522;19.106;2024-03-08T10:59:42;43.65;;;18.85;;
54977;SDS011;40873;47.522;19.106;2024-03-08T11:02:11;39.17;;;19.33;;
54977;SDS011;40873;47.522;19.106;2024-03-08T11:04:39;45.72;;;19.08;;
54977;SDS011;40873;47.522;19.106;2024-03-08T11:07:13;40.30;;;18.67;;
54977;SDS011;40873;47.522;19.106;2024-03-08T11:09:44;38.30;;;17.00;;
54977;SDS011;40873;47.522;19.106;2024-03-08T11:12:19;39.10;;;17.25;;
54977;SDS011;40873;47.522;19.106;2024-03-08T11:14:50;42.22;;;17.55;;
54977;SDS011;40873;47.522;19.106;2024-03-08T11:17:25;35.70;;;18.20;;
54977;SDS011;40873;47.522;19.106;2024-03-08T11:19:59;43.92;;;19.85;;
54977;SDS011;40873;47.522;19.106;2024-03-08T11:22:32;41.05;;;21.05;;
54977;SDS011;40873;47.522;19.106;2024-03-08T11:25:04;40.85;;;19.00;;
54977;SDS011;40873;47.522;19.106;2024-03-08T11:27:37;41.38;;;18.20;;
54977;SDS011;40873;47.522;19.106;2024-03-08T11:30:05;42.75;;;19.58;;
54977;SDS011;40873;47.522;19.106;2024-03-08T11:32:44;35.55;;;16.77;;
54977;SDS011;40873;47.522;19.106;2024-03-08T11:35:20;41.17;;;18.05;;
54977;SDS011;40873;47.522;19.106;2024-03-08T11:37:52;42.38;;;19.80;;
54977;SDS011;40873;47.522;19.106;2024-03-08T11:40:19;41.03;;;18.38;;
54977;SDS011;40873;47.522;19.106;2024-03-08T11:42:48;44.10;;;20.52;;
54977;SDS011;40873;47.522;19.106;2024-03-08T11:45:16;45.08;;;20.13;;
54977;SDS011;40873;47.522;19.106;2024-03-08T11:47:44;37.17;;;19.20;;
54977;SDS011;40873;47.522;19.106;2024-03-08T11:50:15;38.92;;;20.05;;
54977;SDS011;40873;47.522;19.106;2024-03-08T11:52:43;44.17;;;19.88;;
54977;SDS011;40873;47.522;19.106;2024-03-08T11:55:11;36.50;;;19.73;;
54977;SDS011;40873;47.522;19.106;2024-03-08T11:57:39;49.42;;;22.25;;
54977;SDS011;40873;47.522;19.106;2024-03-08T12:00:14;36.97;;;19.30;;
54977;SDS011;40873;47.522;19.106;2024-03-08T12:03:05;46.25;;;21.67;;
54977;SDS011;40873;47.522;19.106;2024-03-08T12:05:33;45.00;;;20.00;;
54977;SDS011;40873;47.522;19.106;2024-03-08T12:08:01;44.80;;;20.40;;
54977;SDS011;40873;47.522;19.106;2024-03-08T12:10:29;45.42;;;22.42;;
54977;SDS011;40873;47.522;19.106;2024-03-08T12:12:57;39.53;;;21.27;;
54977;SDS011;40873;47.522;19.106;2024-03-08T12:15:31;42.05;;;20.77;;
54977;SDS011;40873;47.522;19.106;2024-03-08T12:18:01;45.70;;;22.00;;
54977;SDS011;40873;47.522;19.106;2024-03-08T12:20:31;43.65;;;22.85;;
54977;SDS011;40873;47.522;19.106;2024-03-08T12:22:59;48.88;;;22.35;;
54977;SDS011;40873;47.522;19.106;2024-03-08T12:25:29;44.67;;;22.38;;
54977;SDS011;40873;47.522;19.106;2024-03-08T12:28:07;45.47;;;22.73;;
54977;SDS011;40873;47.522;19.106;2024-03-08T12:30:48;50.17;;;23.77;;
54977;SDS011;40873;47.522;19.106;2024-03-08T12:33:20;41.63;;;21.55;;
54977;SDS011;40873;47.522;19.106;2024-03-08T12:35:53;41.92;;;22.13;;
54977;SDS011;40873;47.522;19.106;2024-03-08T12:38:22;41.83;;;21.67;;
54977;SDS011;40873;47.522;19.106;2024-03-08T12:40:59;39.72;;;19.83;;
54977;SDS011;40873;47.522;19.106;2024-03-08T12:43:28;35.92;;;17.20;;
54977;SDS011;40873;47.522;19.106;2024-03-08T12:45:59;38.20;;;18.08;;
54977;SDS011;40873;47.522;19.106;2024-03-08T12:48:26;35.17;;;18.08;;
54977;SDS011;40873;47.522;19.106;2024-03-08T12:50:53;33.22;;;18.08;;
54977;SDS011;40873;47.522;19.106;2024-03-08T12:53:23;30.60;;;17.48;;
54977;SDS011;40873;47.522;19.106;2024-03-08T12:55:52;30.80;;;16.08;;
54977;SDS011;40873;47.522;19.106;2024-03-08T12:58:19;30.90;;;16.70;;
54977;SDS011;40873;47.522;19.106;2024-03-08T13:00:47;34.78;;;16.40;;
54977;SDS011;40873;47.522;19.106;2024-03-08T13:03:19;31.00;;;16.80;;
54977;SDS011;40873;47.522;19.106;2024-03-08T13:05:47;29.33;;;16.58;;
54977;SDS011;40873;47.522;19.106;2024-03-08T13:08:15;29.27;;;17.55;;
54977;SDS011;40873;47.522;19.106;2024-03-08T13:10:44;32.58;;;17.92;;
54977;SDS011;40873;47.522;19.106;2024-03-08T13:13:12;30.17;;;17.00;;
54977;SDS011;40873;47.522;19.106;2024-03-08T13:15:40;34.97;;;16.88;;
54977;SDS011;40873;47.522;19.106;2024-03-08T13:18:07;30.70;;;15.60;;
54977;SDS011;40873;47.522;19.106;2024-03-08T13:20:36;40.20;;;18.23;;
54977;SDS011;40873;47.522;19.106;2024-03-08T13:23:13;43.20;;;20.48;;
54977;SDS011;40873;47.522;19.106;2024-03-08T13:25:40;42.53;;;19.35;;
54977;SDS011;40873;47.522;19.106;2024-03-08T13:28:08;40.00;;;19.42;;
54977;SDS011;40873;47.522;19.106;2024-03-08T13:30:36;41.00;;;20.65;;
54977;SDS011;40873;47.522;19.106;2024-03-08T13:33:03;45.65;;;21.48;;
54977;SDS011;40873;47.522;19.106;2024-03-08T13:35:32;50.00;;;21.85;;
54977;SDS011;40873;47.522;19.106;2024-03-08T13:38:00;43.78;;;23.38;;
54977;SDS011;40873;47.522;19.106;2024-03-08T13:40:31;51.42;;;24.40;;
54977;SDS011;40873;47.522;19.106;2024-03-08T13:42:58;44.25;;;22.17;;
54977;SDS011;40873;47.522;19.106;2024-03-08T13:45:28;48.20;;;20.73;;
54977;SDS011;40873;47.522;19.106;2024-03-08T13:47:55;44.83;;;21.30;;
54977;SDS011;40873;47.522;19.106;2024-03-08T13:50:22;45.20;;;22.67;;
54977;SDS011;40873;47.522;19.106;2024-03-08T13:52:50;44.17;;;21.45;;
54977;SDS011;40873;47.522;19.106;2024-03-08T13:55:23;44.83;;;21.30;;
54977;SDS011;40873;47.522;19.106;2024-03-08T13:57:53;40.47;;;20.30;;
54977;SDS011;40873;47.522;19.106;2024-03-08T14:00:21;44.33;;;19.25;;
54977;SDS011;40873;47.522;19.106;2024-03-08T14:02:49;37.72;;;18.77;;
54977;SDS011;40873;47.522;19.106;2024-03-08T14:05:17;38.75;;;19.73;;
54977;SDS011;40873;47.522;19.106;2024-03-08T14:07:46;40.38;;;20.15;;
54977;SDS011;40873;47.522;19.106;2024-03-08T14:10:17;43.53;;;20.42;;
54977;SDS011;40873;47.522;19.106;2024-03-08T14:12:47;40.00;;;19.02;;
54977;SDS011;40873;47.522;19.106;2024-03-08T14:15:16;37.03;;;18.27;;
54977;SDS011;40873;47.522;19.106;2024-03-08T14:17:43;37.75;;;18.98;;
54977;SDS011;40873;47.522;19.106;2024-03-08T14:20:14;38.03;;;18.33;;